createdAt,value
2022-10-14T00:00:59.203Z,0.00
2022-10-14T00:01:59.223Z,0.00
2022-10-14T00:02:59.135Z,0.00
2022-10-14T00:03:59.113Z,0.00
2022-10-14T00:04:59.093Z,0.00
2022-10-14T00:05:59.068Z,0.00
2022-10-14T00:06:59.049Z,0.00
2022-10-14T00:07:59.024Z,0.00
2022-10-14T00:08:59.003Z,0.00
2022-10-14T00:09:58.978Z,0.00
2022-10-14T00:10:58.958Z,0.00
2022-10-14T00:11:58.935Z,0.00
2022-10-14T00:12:58.912Z,0.00
2022-10-14T00:13:58.887Z,0.00
2022-10-14T00:14:58.866Z,0.00
2022-10-14T00:15:58.842Z,0.00
2022-10-14T00:16:58.840Z,0.00
2022-10-14T00:17:58.796Z,0.00
2022-10-14T00:18:58.778Z,0.00
2022-10-14T00:19:58.755Z,0.00
2022-10-14T00:20:58.735Z,0.00
2022-10-14T00:21:58.709Z,0.00
2022-10-14T00:22:58.721Z,0.00
2022-10-14T00:23:58.664Z,0.00
2022-10-14T00:24:58.647Z,0.00
2022-10-14T00:25:58.618Z,0.00
2022-10-14T00:26:58.600Z,0.00
2022-10-14T00:27:58.572Z,0.00
2022-10-14T00:28:58.613Z,0.00
2022-10-14T00:29:58.528Z,0.00
2022-10-14T00:30:58.505Z,0.00
2022-10-14T00:31:58.483Z,0.00
2022-10-14T00:32:58.482Z,0.00
2022-10-14T00:33:58.452Z,0.00
2022-10-14T00:34:58.420Z,0.00
2022-10-14T00:35:58.399Z,0.00
2022-10-14T00:36:58.371Z,0.00
2022-10-14T00:37:58.372Z,0.00
2022-10-14T00:38:58.328Z,0.00
2022-10-14T00:39:58.305Z,0.00
2022-10-14T00:40:58.283Z,0.00
2022-10-14T00:41:58.258Z,0.00
2022-10-14T00:42:58.237Z,0.00
2022-10-14T00:43:58.214Z,0.00
2022-10-14T00:44:58.190Z,0.00
2022-10-14T00:45:58.165Z,0.00
2022-10-14T00:46:58.148Z,0.00
2022-10-14T00:47:58.125Z,0.00
2022-10-14T00:48:58.119Z,0.00
2022-10-14T00:49:58.076Z,0.00
2022-10-14T00:50:58.057Z,0.00
2022-10-14T00:51:58.031Z,0.00
2022-10-14T00:52:58.009Z,0.00
2022-10-14T00:53:57.984Z,0.00
2022-10-14T00:54:57.964Z,0.00
2022-10-14T00:55:57.940Z,0.00
2022-10-14T00:56:57.924Z,0.00
2022-10-14T00:57:57.896Z,0.00
2022-10-14T00:58:57.872Z,0.00
2022-10-14T00:59:57.850Z,0.00
2022-10-14T01:00:57.878Z,0.00
2022-10-14T01:01:57.805Z,0.00
2022-10-14T01:02:57.785Z,0.00
2022-10-14T01:03:57.759Z,0.00
2022-10-14T01:04:57.758Z,0.00
2022-10-14T01:05:57.726Z,0.00
2022-10-14T01:06:57.694Z,0.00
2022-10-14T01:07:57.671Z,0.00
2022-10-14T01:08:57.645Z,0.00
2022-10-14T01:09:57.621Z,0.00
2022-10-14T01:10:57.604Z,0.00
2022-10-14T01:12:23.581Z,0.00
2022-10-14T01:12:57.557Z,0.00
2022-10-14T01:13:57.529Z,0.00
2022-10-14T01:14:57.510Z,0.00
2022-10-14T01:15:57.484Z,0.00
2022-10-14T01:16:57.466Z,0.00
2022-10-14T01:17:57.438Z,0.00
2022-10-14T01:18:57.426Z,0.00
2022-10-14T01:19:57.394Z,0.00
2022-10-14T01:20:57.390Z,0.00
2022-10-14T01:21:57.348Z,0.00
2022-10-14T01:22:57.326Z,0.00
2022-10-14T01:23:57.303Z,0.00
2022-10-14T01:24:57.282Z,0.00
2022-10-14T01:25:57.265Z,0.00
2022-10-14T01:26:57.236Z,0.00
2022-10-14T01:27:57.211Z,0.00
2022-10-14T01:28:57.229Z,0.00
2022-10-14T01:29:57.165Z,0.00
2022-10-14T01:30:57.145Z,0.00
2022-10-14T01:31:57.123Z,0.00
2022-10-14T01:32:57.099Z,0.00
2022-10-14T01:33:57.076Z,0.00
2022-10-14T01:34:57.067Z,0.00
2022-10-14T01:35:57.029Z,0.00
2022-10-14T01:36:57.029Z,0.00
2022-10-14T01:37:56.987Z,0.00
2022-10-14T01:38:56.966Z,0.00
2022-10-14T01:39:56.940Z,0.00
2022-10-14T01:40:56.919Z,0.00
2022-10-14T01:41:56.896Z,0.00
2022-10-14T01:42:56.871Z,0.00
2022-10-14T01:43:56.848Z,0.00
2022-10-14T01:44:56.827Z,0.00
2022-10-14T01:45:56.808Z,0.00
2022-10-14T01:46:56.782Z,0.00
2022-10-14T01:47:56.757Z,0.00
2022-10-14T01:48:56.735Z,0.00
2022-10-14T01:49:56.719Z,0.00
2022-10-14T01:50:56.692Z,0.00
2022-10-14T01:51:56.668Z,0.00
2022-10-14T01:52:56.663Z,0.00
2022-10-14T01:53:56.621Z,0.00
2022-10-14T01:54:56.597Z,0.00
2022-10-14T01:55:56.576Z,0.00
2022-10-14T01:56:56.553Z,0.00
2022-10-14T01:57:56.533Z,0.00
2022-10-14T01:58:56.510Z,0.00
2022-10-14T01:59:56.486Z,0.00
2022-10-14T02:00:56.463Z,0.00
2022-10-14T02:01:56.501Z,0.00
2022-10-14T02:02:56.420Z,0.00
2022-10-14T02:03:56.396Z,0.00
2022-10-14T02:04:56.372Z,0.00
2022-10-14T02:05:56.349Z,0.00
2022-10-14T02:06:56.324Z,0.00
2022-10-14T02:07:56.303Z,0.00
2022-10-14T02:08:56.295Z,0.00
2022-10-14T02:09:56.258Z,0.00
2022-10-14T02:11:01.703Z,0.00
2022-10-14T02:11:56.216Z,0.00
2022-10-14T02:12:56.190Z,0.00
2022-10-14T02:13:56.169Z,0.00
2022-10-14T02:14:56.143Z,0.00
2022-10-14T02:15:56.124Z,0.00
2022-10-14T02:16:56.097Z,0.00
2022-10-14T02:17:56.077Z,0.00
2022-10-14T02:18:56.051Z,0.00
2022-10-14T02:19:56.030Z,0.00
2022-10-14T02:20:56.007Z,0.00
2022-10-14T02:21:55.984Z,0.00
2022-10-14T02:22:55.962Z,0.00
2022-10-14T02:23:55.943Z,0.00
2022-10-14T02:24:55.934Z,0.00
2022-10-14T02:25:55.894Z,0.00
2022-10-14T02:26:55.870Z,0.00
2022-10-14T02:27:55.851Z,0.00
2022-10-14T02:28:55.886Z,0.00
2022-10-14T02:29:55.806Z,0.00
2022-10-14T02:30:55.786Z,0.00
2022-10-14T02:31:55.758Z,0.00
2022-10-14T02:32:55.735Z,0.00
2022-10-14T02:33:55.712Z,0.00
2022-10-14T02:34:55.689Z,0.00
2022-10-14T02:35:55.667Z,0.00
2022-10-14T02:36:55.644Z,0.00
2022-10-14T02:37:55.622Z,0.00
2022-10-14T02:38:55.597Z,0.00
2022-10-14T02:39:55.576Z,0.00
2022-10-14T02:40:55.568Z,0.00
2022-10-14T02:41:55.529Z,0.00
2022-10-14T02:42:55.506Z,0.00
2022-10-14T02:43:55.487Z,0.00
2022-10-14T02:44:55.461Z,0.00
2022-10-14T02:45:55.444Z,0.00
2022-10-14T02:46:55.413Z,0.00
2022-10-14T02:47:55.393Z,0.00
2022-10-14T02:48:55.369Z,0.00
2022-10-14T02:49:55.351Z,0.00
2022-10-14T02:50:55.323Z,0.00
2022-10-14T02:51:55.302Z,0.00
2022-10-14T02:52:55.277Z,0.00
2022-10-14T02:53:55.256Z,0.00
2022-10-14T02:54:55.231Z,0.00
2022-10-14T02:55:55.212Z,0.00
2022-10-14T02:56:55.207Z,0.00
2022-10-14T02:57:55.166Z,0.00
2022-10-14T02:58:55.139Z,0.00
2022-10-14T02:59:55.120Z,0.00
2022-10-14T03:00:55.097Z,0.00
2022-10-14T03:01:55.116Z,0.00
2022-10-14T03:02:55.047Z,0.00
2022-10-14T03:03:55.029Z,0.00
2022-10-14T03:04:55.004Z,0.00
2022-10-14T03:05:54.982Z,0.00
2022-10-14T03:06:54.957Z,0.00
2022-10-14T03:07:54.936Z,0.00
2022-10-14T03:08:54.910Z,0.00
2022-10-14T03:09:54.889Z,0.00
2022-10-14T03:10:54.863Z,0.00
2022-10-14T03:11:54.843Z,0.00
2022-10-14T03:12:54.838Z,0.00
2022-10-14T03:13:54.795Z,0.00
2022-10-14T03:14:54.770Z,0.00
2022-10-14T03:15:54.759Z,0.00
2022-10-14T03:16:54.728Z,0.00
2022-10-14T03:17:54.704Z,0.00
2022-10-14T03:18:54.679Z,0.00
2022-10-14T03:19:54.661Z,0.00
2022-10-14T03:20:54.636Z,0.00
2022-10-14T03:21:54.612Z,0.00
2022-10-14T03:22:54.586Z,0.00
2022-10-14T03:23:54.566Z,0.00
2022-10-14T03:24:54.541Z,0.00
2022-10-14T03:25:54.518Z,0.00
2022-10-14T03:26:54.492Z,0.00
2022-10-14T03:27:54.472Z,0.00
2022-10-14T03:28:54.556Z,0.00
2022-10-14T03:29:54.427Z,0.00
2022-10-14T03:30:54.401Z,0.00
2022-10-14T03:31:54.379Z,0.00
2022-10-14T03:32:54.358Z,0.00
2022-10-14T03:33:54.332Z,0.00
2022-10-14T03:34:54.309Z,0.00
2022-10-14T03:35:54.287Z,0.00
2022-10-14T03:36:54.263Z,0.00
2022-10-14T03:37:54.241Z,0.00
2022-10-14T03:38:54.214Z,0.00
2022-10-14T03:39:54.196Z,0.00
2022-10-14T03:40:54.169Z,0.00
2022-10-14T03:41:54.149Z,0.00
2022-10-14T03:42:54.133Z,0.00
2022-10-14T03:43:54.101Z,0.00
2022-10-14T03:44:54.093Z,0.00
2022-10-14T03:45:54.052Z,0.00
2022-10-14T03:46:54.033Z,0.00
2022-10-14T03:47:54.009Z,0.00
2022-10-14T03:48:53.983Z,0.00
2022-10-14T03:49:53.959Z,0.00
2022-10-14T03:50:53.936Z,0.00
2022-10-14T03:51:53.914Z,0.00
2022-10-14T03:52:55.799Z,0.00
2022-10-14T03:53:53.865Z,0.00
2022-10-14T03:54:53.842Z,0.00
2022-10-14T03:55:53.822Z,0.00
2022-10-14T03:56:53.797Z,0.00
2022-10-14T03:57:53.771Z,0.00
2022-10-14T03:58:53.746Z,0.00
2022-10-14T03:59:53.723Z,0.00
2022-10-14T04:00:53.716Z,0.00
2022-10-14T04:01:53.798Z,0.00
2022-10-14T04:02:53.655Z,0.00
2022-10-14T04:03:53.632Z,0.00
2022-10-14T04:04:58.405Z,0.00
2022-10-14T04:05:53.584Z,0.00
2022-10-14T04:06:53.599Z,0.00
2022-10-14T04:07:53.539Z,0.00
2022-10-14T04:08:53.511Z,0.00
2022-10-14T04:09:53.497Z,0.00
2022-10-14T04:10:53.473Z,0.00
2022-10-14T04:11:53.448Z,0.00
2022-10-14T04:12:53.422Z,0.00
2022-10-14T04:13:53.398Z,0.00
2022-10-14T04:14:53.370Z,0.00
2022-10-14T04:15:53.356Z,0.00
2022-10-14T04:16:53.344Z,0.00
2022-10-14T04:17:53.303Z,0.00
2022-10-14T04:18:53.290Z,0.00
2022-10-14T04:19:53.257Z,0.00
2022-10-14T04:20:53.230Z,0.00
2022-10-14T04:21:53.207Z,0.00
2022-10-14T04:22:53.183Z,0.00
2022-10-14T04:23:53.162Z,0.00
2022-10-14T04:24:53.139Z,0.00
2022-10-14T04:25:53.113Z,0.00
2022-10-14T04:26:53.086Z,0.00
2022-10-14T04:27:53.068Z,0.00
2022-10-14T04:28:53.111Z,0.00
2022-10-14T04:29:53.021Z,0.00
2022-10-14T04:30:52.993Z,0.00
2022-10-14T04:31:52.973Z,0.00
2022-10-14T04:32:52.966Z,0.00
2022-10-14T04:33:52.924Z,0.00
2022-10-14T04:34:52.900Z,0.00
2022-10-14T04:35:52.881Z,0.00
2022-10-14T04:36:52.852Z,0.00
2022-10-14T04:37:52.830Z,0.00
2022-10-14T04:38:52.807Z,0.00
2022-10-14T04:39:52.790Z,0.00
2022-10-14T04:40:52.766Z,0.00
2022-10-14T04:41:52.738Z,0.00
2022-10-14T04:42:52.713Z,0.00
2022-10-14T04:43:52.689Z,0.00
2022-10-14T04:44:52.667Z,0.00
2022-10-14T04:45:52.642Z,0.00
2022-10-14T04:46:52.618Z,0.00
2022-10-14T04:47:52.597Z,0.00
2022-10-14T04:48:52.589Z,0.00
2022-10-14T04:49:52.547Z,0.00
2022-10-14T04:50:52.528Z,0.00
2022-10-14T04:51:52.506Z,0.00
2022-10-14T04:52:52.475Z,0.00
2022-10-14T04:53:52.455Z,0.00
2022-10-14T04:54:52.429Z,0.00
2022-10-14T04:55:52.407Z,0.00
2022-10-14T04:56:52.384Z,0.00
2022-10-14T04:57:52.361Z,0.00
2022-10-14T04:58:52.336Z,0.00
2022-10-14T04:59:52.313Z,0.00
2022-10-14T05:00:52.290Z,0.00
2022-10-14T05:01:52.356Z,0.00
2022-10-14T05:02:52.242Z,0.00
2022-10-14T05:03:52.218Z,0.00
2022-10-14T05:04:52.215Z,0.00
2022-10-14T05:05:52.176Z,0.00
2022-10-14T05:06:52.151Z,0.00
2022-10-14T05:07:52.127Z,0.00
2022-10-14T05:08:52.102Z,0.00
2022-10-14T05:09:56.193Z,0.00
2022-10-14T05:10:52.053Z,0.00
2022-10-14T05:11:52.034Z,0.00
2022-10-14T05:12:52.011Z,0.00
2022-10-14T05:13:51.986Z,0.00
2022-10-14T05:14:51.959Z,0.00
2022-10-14T05:15:51.939Z,0.00
2022-10-14T05:16:51.914Z,0.00
2022-10-14T05:17:51.891Z,0.00
2022-10-14T05:18:51.870Z,0.00
2022-10-14T05:19:51.845Z,0.00
2022-10-14T05:20:51.836Z,0.00
2022-10-14T05:21:51.798Z,0.00
2022-10-14T05:22:51.774Z,0.00
2022-10-14T05:23:51.751Z,0.00
2022-10-14T05:24:51.725Z,0.00
2022-10-14T05:25:51.713Z,0.00
2022-10-14T05:26:51.680Z,0.00
2022-10-14T05:27:51.658Z,0.00
2022-10-14T05:28:51.676Z,0.00
2022-10-14T05:29:51.612Z,0.00
2022-10-14T05:30:51.587Z,0.00
2022-10-14T05:31:51.565Z,0.00
2022-10-14T05:32:51.539Z,0.00
2022-10-14T05:33:51.518Z,0.00
2022-10-14T05:34:51.494Z,0.00
2022-10-14T05:35:58.962Z,0.00
2022-10-14T05:36:51.464Z,0.00
2022-10-14T05:37:51.427Z,0.00
2022-10-14T05:38:51.400Z,0.00
2022-10-14T05:39:51.379Z,0.00
2022-10-14T05:40:51.358Z,4.00
2022-10-14T05:41:51.333Z,0.00
2022-10-14T05:42:51.307Z,0.00
2022-10-14T05:43:51.286Z,0.00
2022-10-14T05:44:51.260Z,0.00
2022-10-14T05:45:51.238Z,4.00
2022-10-14T05:46:51.213Z,4.00
2022-10-14T05:47:51.191Z,4.00
2022-10-14T05:48:51.168Z,0.00
2022-10-14T05:49:51.143Z,0.00
2022-10-14T05:50:51.120Z,4.00
2022-10-14T05:51:51.098Z,4.00
2022-10-14T05:52:51.091Z,4.00
2022-10-14T05:53:51.051Z,4.00
2022-10-14T05:54:51.030Z,4.00
2022-10-14T05:55:51.005Z,8.00
2022-10-14T05:56:50.979Z,4.00
2022-10-14T05:57:50.957Z,4.00
2022-10-14T05:58:50.931Z,8.00
2022-10-14T05:59:50.909Z,4.00
2022-10-14T06:00:50.896Z,8.00
2022-10-14T06:01:50.863Z,8.00
2022-10-14T06:02:50.893Z,8.00
2022-10-14T06:03:50.816Z,12.00
2022-10-14T06:04:50.794Z,8.00
2022-10-14T06:05:50.768Z,8.00
2022-10-14T06:06:50.749Z,8.00
2022-10-14T06:07:50.731Z,8.00
2022-10-14T06:08:50.715Z,12.00
2022-10-14T06:09:50.673Z,8.00
2022-10-14T06:10:50.650Z,12.00
2022-10-14T06:11:50.627Z,12.00
2022-10-14T06:12:50.613Z,12.00
2022-10-14T06:13:50.580Z,12.00
2022-10-14T06:14:50.557Z,12.00
2022-10-14T06:15:50.537Z,12.00
2022-10-14T06:16:50.510Z,16.00
2022-10-14T06:17:50.485Z,16.00
2022-10-14T06:18:54.253Z,16.00
2022-10-14T06:19:50.444Z,16.00
2022-10-14T06:20:50.417Z,20.00
2022-10-14T06:21:50.390Z,20.00
2022-10-14T06:22:50.370Z,24.00
2022-10-14T06:23:50.344Z,28.00
2022-10-14T06:24:50.344Z,28.00
2022-10-14T06:25:50.298Z,28.00
2022-10-14T06:26:50.277Z,32.00
2022-10-14T06:27:50.253Z,36.00
2022-10-14T06:28:50.326Z,40.00
2022-10-14T06:29:50.205Z,40.00
2022-10-14T06:30:50.181Z,44.00
2022-10-14T06:31:50.157Z,52.00
2022-10-14T06:32:50.136Z,60.00
2022-10-14T06:33:50.108Z,56.00
2022-10-14T06:34:50.090Z,48.00
2022-10-14T06:35:50.070Z,48.00
2022-10-14T06:36:50.041Z,48.00
2022-10-14T06:37:50.017Z,52.00
2022-10-14T06:38:49.997Z,56.00
2022-10-14T06:39:49.975Z,56.00
2022-10-14T06:40:49.966Z,60.00
2022-10-14T06:41:49.925Z,64.00
2022-10-14T06:42:49.902Z,68.00
2022-10-14T06:43:49.876Z,68.00
2022-10-14T06:44:49.853Z,68.00
2022-10-14T06:45:49.830Z,72.00
2022-10-14T06:46:49.812Z,68.00
2022-10-14T06:47:49.788Z,80.00
2022-10-14T06:48:50.548Z,104.00
2022-10-14T06:49:49.740Z,100.00
2022-10-14T06:50:49.715Z,100.00
2022-10-14T06:51:49.689Z,100.00
2022-10-14T06:52:49.668Z,112.00
2022-10-14T06:53:49.641Z,108.00
2022-10-14T06:54:49.632Z,88.00
2022-10-14T06:55:49.596Z,88.00
2022-10-14T06:56:49.592Z,92.00
2022-10-14T06:57:49.559Z,84.00
2022-10-14T06:58:49.527Z,72.00
2022-10-14T06:59:49.502Z,64.00
2022-10-14T07:00:49.515Z,60.00
2022-10-14T07:01:49.553Z,52.00
2022-10-14T07:02:49.465Z,60.00
2022-10-14T07:03:52.846Z,60.00
2022-10-14T07:04:49.388Z,56.00
2022-10-14T07:05:49.364Z,60.00
2022-10-14T07:06:49.340Z,56.00
2022-10-14T07:07:49.405Z,56.00
2022-10-14T07:08:49.296Z,60.00
2022-10-14T07:09:49.269Z,56.00
2022-10-14T07:10:49.250Z,56.00
2022-10-14T07:11:49.223Z,48.00
2022-10-14T07:12:49.229Z,48.00
2022-10-14T07:13:49.175Z,52.00
2022-10-14T07:14:49.155Z,48.00
2022-10-14T07:15:49.131Z,44.00
2022-10-14T07:16:49.111Z,40.00
2022-10-14T07:17:49.083Z,44.00
2022-10-14T07:18:49.064Z,44.00
2022-10-14T07:19:49.041Z,44.00
2022-10-14T07:20:49.018Z,44.00
2022-10-14T07:21:48.991Z,44.00
2022-10-14T07:22:48.972Z,44.00
2022-10-14T07:23:48.944Z,52.00
2022-10-14T07:24:48.927Z,52.00
2022-10-14T07:25:48.898Z,48.00
2022-10-14T07:26:48.877Z,48.00
2022-10-14T07:27:48.852Z,44.00
2022-10-14T07:28:48.898Z,44.00
2022-10-14T07:29:48.804Z,44.00
2022-10-14T07:30:48.784Z,44.00
2022-10-14T07:31:48.759Z,48.00
2022-10-14T07:32:48.738Z,52.00
2022-10-14T07:33:48.713Z,56.00
2022-10-14T07:34:48.693Z,60.00
2022-10-14T07:35:48.666Z,64.00
2022-10-14T07:36:48.645Z,68.00
2022-10-14T07:37:48.624Z,76.00
2022-10-14T07:38:48.597Z,76.00
2022-10-14T07:39:48.583Z,84.00
2022-10-14T07:40:48.551Z,92.00
2022-10-14T07:41:48.533Z,104.00
2022-10-14T07:42:48.507Z,116.00
2022-10-14T07:43:48.486Z,124.00
2022-10-14T07:44:48.479Z,120.00
2022-10-14T07:45:48.437Z,112.00
2022-10-14T07:46:48.416Z,104.00
2022-10-14T07:47:48.393Z,100.00
2022-10-14T07:48:58.358Z,84.00
2022-10-14T07:49:48.343Z,80.00
2022-10-14T07:50:48.325Z,80.00
2022-10-14T07:51:48.299Z,92.00
2022-10-14T07:52:48.276Z,100.00
2022-10-14T07:53:48.254Z,108.00
2022-10-14T07:54:48.232Z,92.00
2022-10-14T07:55:48.205Z,84.00
2022-10-14T07:56:48.183Z,76.00
2022-10-14T07:57:48.161Z,72.00
2022-10-14T07:58:48.142Z,68.00
2022-10-14T07:59:48.113Z,64.00
2022-10-14T08:00:48.110Z,68.00
2022-10-14T08:01:48.141Z,68.00
2022-10-14T08:02:48.049Z,72.00
2022-10-14T08:03:48.021Z,68.00
2022-10-14T08:04:48.000Z,68.00
2022-10-14T08:05:47.975Z,60.00
2022-10-14T08:06:47.957Z,60.00
2022-10-14T08:07:47.931Z,56.00
2022-10-14T08:08:47.913Z,56.00
2022-10-14T08:09:47.884Z,52.00
2022-10-14T08:10:47.862Z,56.00
2022-10-14T08:11:47.841Z,52.00
2022-10-14T08:12:47.819Z,56.00
2022-10-14T08:13:47.797Z,60.00
2022-10-14T08:14:47.770Z,64.00
2022-10-14T08:15:47.748Z,68.00
2022-10-14T08:16:47.744Z,76.00
2022-10-14T08:17:47.736Z,76.00
2022-10-14T08:18:47.718Z,84.00
2022-10-14T08:19:47.659Z,88.00
2022-10-14T08:20:47.705Z,84.00
2022-10-14T08:21:47.699Z,84.00
2022-10-14T08:22:47.662Z,88.00
2022-10-14T08:23:47.593Z,96.00
2022-10-14T08:24:47.549Z,108.00
2022-10-14T08:25:47.520Z,112.00
2022-10-14T08:26:47.514Z,112.00
2022-10-14T08:27:47.473Z,108.00
2022-10-14T08:28:47.523Z,112.00
2022-10-14T08:29:47.429Z,108.00
2022-10-14T08:30:47.415Z,96.00
2022-10-14T08:31:47.394Z,100.00
2022-10-14T08:32:47.496Z,92.00
2022-10-14T08:33:47.336Z,84.00
2022-10-14T08:34:47.321Z,84.00
2022-10-14T08:35:50.311Z,76.00
2022-10-14T08:36:47.269Z,68.00
2022-10-14T08:37:47.344Z,72.00
2022-10-14T08:38:47.222Z,72.00
2022-10-14T08:39:47.202Z,76.00
2022-10-14T08:40:47.901Z,80.00
2022-10-14T08:41:47.171Z,88.00
2022-10-14T08:42:47.141Z,96.00
2022-10-14T08:43:47.107Z,124.00
2022-10-14T08:44:47.086Z,172.00
2022-10-14T08:45:47.066Z,200.00
2022-10-14T08:46:51.106Z,236.00
2022-10-14T08:47:47.043Z,284.00
2022-10-14T08:48:47.017Z,332.00
2022-10-14T08:49:47.028Z,304.00
2022-10-14T08:50:46.997Z,212.00
2022-10-14T08:51:47.006Z,172.00
2022-10-14T08:52:46.932Z,140.00
2022-10-14T08:53:46.966Z,120.00
2022-10-14T08:54:46.889Z,100.00
2022-10-14T08:55:46.881Z,104.00
2022-10-14T08:56:46.882Z,104.00
2022-10-14T08:57:46.811Z,100.00
2022-10-14T08:58:46.808Z,84.00
2022-10-14T08:59:46.785Z,72.00
2022-10-14T09:00:46.823Z,64.00
2022-10-14T09:01:46.728Z,56.00
2022-10-14T09:02:46.717Z,56.00
2022-10-14T09:03:46.772Z,52.00
2022-10-14T09:04:46.714Z,52.00
2022-10-14T09:05:46.611Z,56.00
2022-10-14T09:06:46.633Z,64.00
2022-10-14T09:07:46.656Z,84.00
2022-10-14T09:08:46.595Z,88.00
2022-10-14T09:09:46.620Z,76.00
2022-10-14T09:10:46.543Z,72.00
2022-10-14T09:11:46.521Z,68.00
2022-10-14T09:12:46.502Z,64.00
2022-10-14T09:13:46.511Z,76.00
2022-10-14T09:14:46.517Z,92.00
2022-10-14T09:15:46.383Z,108.00
2022-10-14T09:16:50.386Z,132.00
2022-10-14T09:17:46.337Z,152.00
2022-10-14T09:18:49.713Z,164.00
2022-10-14T09:19:46.294Z,188.00
2022-10-14T09:20:46.292Z,252.00
2022-10-14T09:21:52.748Z,320.00
2022-10-14T09:22:46.249Z,240.00
2022-10-14T09:23:46.201Z,208.00
2022-10-14T09:24:46.183Z,216.00
2022-10-14T09:25:46.158Z,232.00
2022-10-14T09:26:46.204Z,244.00
2022-10-14T09:28:46.269Z,284.00
2022-10-14T09:29:46.138Z,304.00
2022-10-14T09:30:46.053Z,300.00
2022-10-14T09:31:46.023Z,296.00
2022-10-14T09:32:46.006Z,308.00
2022-10-14T09:33:45.980Z,328.00
2022-10-14T09:34:45.959Z,344.00
2022-10-14T09:35:45.962Z,468.00
2022-10-14T09:36:45.969Z,836.00
2022-10-14T09:37:45.891Z,776.00
2022-10-14T09:38:45.869Z,912.00
2022-10-14T09:39:45.848Z,852.00
2022-10-14T09:40:45.826Z,448.00
2022-10-14T09:41:45.804Z,612.00
2022-10-14T09:42:45.780Z,676.00
2022-10-14T09:43:45.758Z,592.00
2022-10-14T09:44:45.733Z,888.00
2022-10-14T09:45:45.713Z,692.00
2022-10-14T09:46:45.691Z,668.00
2022-10-14T09:47:45.666Z,1192.00
2022-10-14T09:48:45.646Z,460.00
2022-10-14T09:49:45.624Z,500.00
2022-10-14T09:50:45.602Z,444.00
2022-10-14T09:51:45.580Z,504.00
2022-10-14T09:52:45.575Z,916.00
2022-10-14T09:53:45.540Z,1104.00
2022-10-14T09:54:45.570Z,776.00
2022-10-14T09:55:45.490Z,632.00
2022-10-14T09:56:45.471Z,652.00
2022-10-14T09:57:45.447Z,684.00
2022-10-14T09:58:45.427Z,664.00
2022-10-14T09:59:45.407Z,488.00
2022-10-14T10:00:45.449Z,536.00
2022-10-14T10:01:45.358Z,660.00
2022-10-14T10:02:45.340Z,556.00
2022-10-14T10:03:45.509Z,628.00
2022-10-14T10:04:45.298Z,584.00
2022-10-14T10:05:45.274Z,400.00
2022-10-14T10:06:45.254Z,392.00
2022-10-14T10:07:45.346Z,388.00
2022-10-14T10:08:45.232Z,516.00
2022-10-14T10:09:45.186Z,476.00
2022-10-14T10:10:45.167Z,872.00
2022-10-14T10:11:45.149Z,444.00
2022-10-14T10:12:45.121Z,448.00
2022-10-14T10:13:45.320Z,324.00
2022-10-14T10:14:45.078Z,364.00
2022-10-14T10:15:45.071Z,464.00
2022-10-14T10:16:45.072Z,624.00
2022-10-14T10:17:45.013Z,316.00
2022-10-14T10:18:44.998Z,416.00
2022-10-14T10:19:44.969Z,712.00
2022-10-14T10:20:44.984Z,732.00
2022-10-14T10:21:45.013Z,404.00
2022-10-14T10:22:44.909Z,264.00
2022-10-14T10:23:44.892Z,228.00
2022-10-14T10:24:44.880Z,200.00
2022-10-14T10:25:44.840Z,200.00
2022-10-14T10:26:44.911Z,216.00
2022-10-14T10:27:44.856Z,208.00
2022-10-14T10:28:44.878Z,168.00
2022-10-14T10:29:44.755Z,140.00
2022-10-14T10:30:44.735Z,144.00
2022-10-14T10:31:44.711Z,148.00
2022-10-14T10:32:44.703Z,136.00
2022-10-14T10:33:44.669Z,124.00
2022-10-14T10:34:44.654Z,148.00
2022-10-14T10:35:44.630Z,148.00
2022-10-14T10:36:44.609Z,156.00
2022-10-14T10:37:44.685Z,148.00
2022-10-14T10:38:44.567Z,148.00
2022-10-14T10:39:44.543Z,136.00
2022-10-14T10:41:44.499Z,100.00
2022-10-14T10:42:44.484Z,88.00
2022-10-14T10:43:44.455Z,96.00
2022-10-14T10:44:44.474Z,104.00
2022-10-14T10:45:44.410Z,112.00
2022-10-14T10:46:44.391Z,112.00
2022-10-14T10:47:44.369Z,112.00
2022-10-14T10:48:44.373Z,104.00
2022-10-14T10:49:44.367Z,104.00
2022-10-14T10:50:44.302Z,112.00
2022-10-14T10:51:44.282Z,132.00
2022-10-14T10:52:44.262Z,152.00
2022-10-14T10:53:44.240Z,168.00
2022-10-14T10:54:44.217Z,164.00
2022-10-14T10:55:44.220Z,172.00
2022-10-14T10:56:44.194Z,172.00
2022-10-14T10:57:44.157Z,168.00
2022-10-14T10:58:44.136Z,144.00
2022-10-14T10:59:44.111Z,124.00
2022-10-14T11:00:44.089Z,116.00
2022-10-14T11:01:44.141Z,108.00
2022-10-14T11:02:44.048Z,124.00
2022-10-14T11:03:44.027Z,148.00
2022-10-14T11:04:44.005Z,160.00
2022-10-14T11:05:43.984Z,176.00
2022-10-14T11:06:43.974Z,200.00
2022-10-14T11:07:43.941Z,204.00
2022-10-14T11:08:43.917Z,196.00
2022-10-14T11:09:43.896Z,172.00
2022-10-14T11:10:43.884Z,172.00
2022-10-14T11:11:43.858Z,172.00
2022-10-14T11:12:43.852Z,160.00
2022-10-14T11:13:43.811Z,136.00
2022-10-14T11:14:43.789Z,112.00
2022-10-14T11:15:43.768Z,100.00
2022-10-14T11:16:43.747Z,92.00
2022-10-14T11:17:43.746Z,100.00
2022-10-14T11:18:43.702Z,104.00
2022-10-14T11:19:43.684Z,104.00
2022-10-14T11:20:43.672Z,112.00
2022-10-14T11:21:43.854Z,128.00
2022-10-14T11:22:43.617Z,136.00
2022-10-14T11:23:43.602Z,128.00
2022-10-14T11:24:43.574Z,128.00
2022-10-14T11:25:43.553Z,124.00
2022-10-14T11:26:43.533Z,132.00
2022-10-14T11:27:43.511Z,136.00
2022-10-14T11:28:43.554Z,156.00
2022-10-14T11:29:43.467Z,172.00
2022-10-14T11:30:43.451Z,176.00
2022-10-14T11:31:43.433Z,180.00
2022-10-14T11:32:43.411Z,184.00
2022-10-14T11:33:43.387Z,168.00
2022-10-14T11:34:43.358Z,152.00
2022-10-14T11:35:43.343Z,152.00
2022-10-14T11:36:43.317Z,148.00
2022-10-14T11:37:43.301Z,180.00
2022-10-14T11:38:43.281Z,224.00
2022-10-14T11:39:43.255Z,228.00
2022-10-14T11:40:43.233Z,192.00
2022-10-14T11:41:43.211Z,148.00
2022-10-14T11:42:43.192Z,140.00
2022-10-14T11:43:43.169Z,136.00
2022-10-14T11:44:43.227Z,132.00
2022-10-14T11:45:43.134Z,124.00
2022-10-14T11:46:43.107Z,128.00
2022-10-14T11:47:43.088Z,128.00
2022-10-14T11:48:43.062Z,132.00
2022-10-14T11:49:43.041Z,140.00
2022-10-14T11:50:43.021Z,148.00
2022-10-14T11:51:42.999Z,160.00
2022-10-14T11:52:42.976Z,168.00
2022-10-14T11:53:42.976Z,168.00
2022-10-14T11:54:42.933Z,168.00
2022-10-14T11:55:42.915Z,188.00
2022-10-14T11:56:42.889Z,216.00
2022-10-14T11:57:42.872Z,232.00
2022-10-14T11:58:42.850Z,236.00
2022-10-14T11:59:42.831Z,228.00
2022-10-14T12:00:42.863Z,224.00
2022-10-14T12:01:42.786Z,216.00
2022-10-14T12:02:42.809Z,212.00
2022-10-14T12:03:42.748Z,204.00
2022-10-14T12:04:42.721Z,200.00
2022-10-14T12:05:42.702Z,196.00
2022-10-14T12:06:42.677Z,192.00
2022-10-14T12:07:42.708Z,188.00
2022-10-14T12:08:42.638Z,180.00
2022-10-14T12:09:42.621Z,164.00
2022-10-14T12:10:42.592Z,148.00
2022-10-14T12:11:42.573Z,136.00
2022-10-14T12:12:42.552Z,120.00
2022-10-14T12:13:42.531Z,116.00
2022-10-14T12:14:42.516Z,108.00
2022-10-14T12:15:42.493Z,108.00
2022-10-14T12:16:42.488Z,104.00
2022-10-14T12:17:42.448Z,108.00
2022-10-14T12:18:42.431Z,112.00
2022-10-14T12:19:42.408Z,116.00
2022-10-14T12:20:42.384Z,112.00
2022-10-14T12:21:45.630Z,104.00
2022-10-14T12:22:42.342Z,96.00
2022-10-14T12:23:42.321Z,84.00
2022-10-14T12:24:42.298Z,88.00
2022-10-14T12:25:42.278Z,108.00
2022-10-14T12:26:42.256Z,112.00
2022-10-14T12:27:42.241Z,108.00
2022-10-14T12:28:42.259Z,100.00
2022-10-14T12:29:42.259Z,100.00
2022-10-14T12:30:42.172Z,96.00
2022-10-14T12:31:42.178Z,88.00
2022-10-14T12:32:42.181Z,88.00
2022-10-14T12:33:42.117Z,72.00
2022-10-14T12:34:42.128Z,72.00
2022-10-14T12:35:42.124Z,68.00
2022-10-14T12:36:42.054Z,72.00
2022-10-14T12:37:42.037Z,80.00
2022-10-14T12:38:42.018Z,80.00
2022-10-14T12:39:42.036Z,80.00
2022-10-14T12:40:42.046Z,76.00
2022-10-14T12:41:41.995Z,76.00
2022-10-14T12:42:42.044Z,76.00
2022-10-14T12:43:42.017Z,76.00
2022-10-14T12:44:41.953Z,76.00
2022-10-14T12:46:41.839Z,72.00
2022-10-14T12:47:41.916Z,72.00
2022-10-14T12:48:41.866Z,64.00
2022-10-14T12:49:41.861Z,64.00
2022-10-14T12:50:41.809Z,72.00
2022-10-14T12:51:41.818Z,72.00
2022-10-14T12:52:41.793Z,72.00
2022-10-14T12:53:41.785Z,64.00
2022-10-14T12:54:41.791Z,60.00
2022-10-14T12:55:41.699Z,52.00
2022-10-14T12:56:41.705Z,56.00
2022-10-14T12:57:42.448Z,60.00
2022-10-14T12:58:41.636Z,68.00
2022-10-14T12:59:41.565Z,68.00
2022-10-14T13:00:41.642Z,72.00